Time;durP1;ratioP1;P1;durP2;ratioP2;P2;SDS_P1;SDS_P2;PMS_P1;PMS_P2;Temp;Humidity;BMP_temperature;BMP_pressure;BME280_temperature;BME280_humidity;BME280_pressure;Samples;Min_cycle;Max_cycle;Signal;HPM_P1;HPM_P2
2022/09/17 00:01:44;;;;;;;;;;;;;;;20.94;29.49;97005.38;5000873;28;739;-77
2022/09/17 00:04:09;;;;;;;;;;;;;;;21.06;29.39;97008.06;4983352;28;760;-77
2022/09/17 00:06:35;;;;;;;;;;;;;;;21.51;29.30;97003.06;4983432;28;1906;-77
2022/09/17 00:09:00;;;;;;;;;;;;;;;21.54;29.41;96996.44;4985449;28;1187;-76
2022/09/17 00:11:27;;;;;;;;;;;;;;;21.36;29.34;97004.91;4985984;28;995;-77
2022/09/17 00:13:53;;;;;;;;;;;;;;;21.24;29.50;97013.03;5002069;28;859;-77
2022/09/17 00:16:35;;;;;;;;;;;;;;;20.96;29.78;96994.38;4986263;28;1200;-77
2022/09/17 00:19:00;;;;;;;;;;;;;;;21.14;29.49;96991.63;5002303;28;796;-77
2022/09/17 00:21:26;;;;;;;;;;;;;;;20.95;29.96;96989.97;5002159;28;823;-77
2022/09/17 00:23:52;;;;;;;;;;;;;;;20.68;30.10;96994.25;5002332;28;767;-77
2022/09/17 00:26:18;;;;;;;;;;;;;;;20.81;30.17;96997.75;5001774;28;1972;-77
2022/09/17 00:28:47;;;;;;;;;;;;;;;21.10;29.36;96996.63;5002092;28;806;-76
2022/09/17 00:31:12;;;;;;;;;;;;;;;20.97;29.44;96987.44;5019641;28;752;-78
2022/09/17 00:33:38;;;;;;;;;;;;;;;20.97;29.56;96976.13;5001674;28;1239;-77
2022/09/17 00:36:03;;;;;;;;;;;;;;;20.00;29.75;96849.13;4958649;29;874;-77
2022/09/17 00:42:09;;;;;;;;;;;;;;;20.86;29.69;96998.41;4958814;29;669;-77
2022/09/17 00:44:40;;;;;;;;;;;;;;;20.86;29.27;96989.94;4942858;29;1170;-77
2022/09/17 00:47:19;;;;;;;;;;;;;;;20.80;29.89;96990.53;4958532;29;1906;-77
2022/09/17 00:49:45;;;;;;;;;;;;;;;20.92;29.44;96985.22;4927039;29;814;-77
2022/09/17 00:52:15;;;;;;;;;;;;;;;20.74;29.57;96980.28;4942711;29;733;-77
2022/09/17 00:54:41;;;;;;;;;;;;;;;20.83;29.34;96979.53;4942563;29;728;-78
2022/09/17 01:00:41;;;;;;;;;;;;;;;21.61;28.64;96984.84;4958284;29;899;-77
2022/09/17 01:03:07;;;;;;;;;;;;;;;21.44;29.11;96980.72;4958667;29;893;-77
2022/09/17 01:05:32;;;;;;;;;;;;;;;21.08;29.41;96974.44;4958302;29;1918;-77
2022/09/17 01:08:16;;;;;;;;;;;;;;;21.07;29.65;96986.25;5011523;28;815;-77
2022/09/17 01:10:42;;;;;;;;;;;;;;;20.90;29.75;96988.53;5019053;28;1097;-76
2022/09/17 01:13:26;;;;;;;;;;;;;;;20.91;29.94;96997.81;5017821;28;1160;-78
2022/09/17 01:15:56;;;;;;;;;;;;;;;20.92;29.64;96990.88;5001339;28;724;-77
2022/09/17 01:18:36;;;;;;;;;;;;;;;20.88;29.72;96991.06;5000868;28;857;-77
2022/09/17 01:24:57;;;;;;;;;;;;;;;20.86;30.05;96999.19;5018564;28;661;-78
2022/09/17 01:27:28;;;;;;;;;;;;;;;20.86;29.66;96993.53;5000929;28;1902;-78
2022/09/17 01:29:54;;;;;;;;;;;;;;;20.74;29.94;96986.75;5018513;28;696;-77
2022/09/17 01:36:00;;;;;;;;;;;;;;;21.35;28.94;96986.34;5018460;28;640;-77
2022/09/17 01:38:33;;;;;;;;;;;;;;;21.42;29.12;96983.22;5001025;28;752;-78
2022/09/17 01:41:06;;;;;;;;;;;;;;;21.51;28.81;96974.75;5000635;28;763;-77
2022/09/17 01:44:03;;;;;;;;;;;;;;;21.10;29.41;96968.34;5018266;28;715;-78
2022/09/17 01:46:31;;;;;;;;;;;;;;;21.18;29.51;96975.28;5017664;28;1923;-78
2022/09/17 01:49:01;;;;;;;;;;;;;;;21.19;29.58;96973.22;5018212;28;747;-77
2022/09/17 01:51:27;;;;;;;;;;;;;;;21.05;29.48;96971.78;5000716;28;810;-77
2022/09/17 01:57:35;;;;;;;;;;;;;;;20.79;30.16;96974.03;4957367;29;972;-78
2022/09/17 02:00:02;;;;;;;;;;;;;;;20.86;29.76;96964.47;4957431;28;1013;-77
2022/09/17 02:02:41;;;;;;;;;;;;;;;20.79;29.78;96965.56;4942816;29;641;-78
2022/09/17 02:08:47;;;;;;;;;;;;;;;20.87;29.76;96963.22;4957141;29;849;-77
2022/09/17 02:11:14;;;;;;;;;;;;;;;20.99;29.58;96963.13;4957228;29;736;-77
2022/09/17 02:13:44;;;;;;;;;;;;;;;21.02;29.27;96969.88;4941032;29;900;-77
2022/09/17 02:16:19;;;;;;;;;;;;;;;20.94;29.57;96965.78;4957029;29;831;-77
2022/09/17 02:18:48;;;;;;;;;;;;;;;20.87;29.43;96963.22;4941056;29;759;-77
2022/09/17 02:21:21;;;;;;;;;;;;;;;20.88;29.76;96970.44;4957244;29;988;-77
2022/09/17 02:23:56;;;;;;;;;;;;;;;20.91;29.26;96961.03;4956931;29;775;-77
2022/09/17 02:26:40;;;;;;;;;;;;;;;21.16;29.49;96960.81;4956809;29;2022;-78
2022/09/17 02:29:09;;;;;;;;;;;;;;;21.30;29.16;96965.91;4957218;29;704;-77
2022/09/17 02:31:34;;;;;;;;;;;;;;;21.34;29.15;96954.44;4940881;29;795;-78
2022/09/17 02:34:00;;;;;;;;;;;;;;;21.33;29.30;96950.03;4998062;28;920;-78
2022/09/17 02:36:26;;;;;;;;;;;;;;;21.04;29.80;96941.94;4999946;28;1109;-77
2022/09/17 02:38:57;;;;;;;;;;;;;;;20.95;29.63;96944.72;4999943;28;708;-77
2022/09/17 02:41:24;;;;;;;;;;;;;;;20.97;29.77;96945.03;4999980;28;818;-78
2022/09/17 02:43:54;;;;;;;;;;;;;;;21.04;29.41;96947.59;4982569;28;826;-78
2022/09/17 02:50:03;;;;;;;;;;;;;;;20.73;29.93;96939.94;5017289;28;613;-77
2022/09/17 02:52:33;;;;;;;;;;;;;;;20.91;29.52;96932.78;4999586;28;756;-77
2022/09/17 02:55:05;;;;;;;;;;;;;;;20.86;29.61;96937.00;4983702;28;1341;-77
2022/09/17 02:57:39;;;;;;;;;;;;;;;20.91;29.58;96938.41;5016387;28;740;-77
2022/09/17 03:00:13;;;;;;;;;;;;;;;20.89;29.35;96941.72;4983663;28;1112;-77
2022/09/17 03:02:38;;;;;;;;;;;;;;;20.85;29.44;96940.28;4999477;28;799;-78
2022/09/17 03:05:05;;;;;;;;;;;;;;;20.94;29.25;96929.03;5016836;28;862;-78
2022/09/17 03:07:31;;;;;;;;;;;;;;;21.43;28.75;96917.66;4983370;28;1910;-78
2022/09/17 03:09:57;;;;;;;;;;;;;;;21.39;28.92;96914.19;4999289;28;1184;-77
2022/09/17 03:12:23;;;;;;;;;;;;;;;21.31;29.08;96916.56;5016940;28;924;-78
2022/09/17 03:14:49;;;;;;;;;;;;;;;21.39;28.92;96916.25;4999647;28;704;-77
2022/09/17 03:17:14;;;;;;;;;;;;;;;20.93;29.51;96918.94;4983315;28;807;-78
2022/09/17 03:19:40;;;;;;;;;;;;;;;21.08;29.34;96914.28;5016339;28;818;-77
2022/09/17 03:22:05;;;;;;;;;;;;;;;20.91;29.79;96915.81;5016726;28;858;-78
2022/09/17 03:24:30;;;;;;;;;;;;;;;20.90;29.68;96912.19;5016833;28;771;-78
2022/09/17 03:26:56;;;;;;;;;;;;;;;20.81;29.81;96907.28;4999190;28;1973;-77
2022/09/17 03:29:21;;;;;;;;;;;;;;;21.03;29.40;96895.88;4999240;28;779;-77
2022/09/17 03:31:47;;;;;;;;;;;;;;;21.00;29.31;96904.53;4999077;28;874;-77
2022/09/17 03:34:12;;;;;;;;;;;;;;;20.99;29.51;96905.78;5001767;28;1541;-78
2022/09/17 03:40:13;;;;;;;;;;;;;;;20.75;29.51;96914.81;5036520;28;645;-77
2022/09/17 03:42:39;;;;;;;;;;;;;;;20.93;29.36;96913.28;5036479;28;762;-77
2022/09/17 03:45:05;;;;;;;;;;;;;;;20.86;29.26;96919.25;5036505;28;724;-77
2022/09/17 03:47:30;;;;;;;;;;;;;;;20.84;29.40;96916.09;5001515;28;1985;-77
2022/09/17 03:49:56;;;;;;;;;;;;;;;20.90;29.11;96909.38;5029752;28;1688;-77
2022/09/17 03:52:21;;;;;;;;;;;;;;;20.92;29.18;96906.06;5036375;28;818;-78
2022/09/17 03:54:47;;;;;;;;;;;;;;;21.22;29.23;96907.25;5036081;28;1795;-77
2022/09/17 03:57:12;;;;;;;;;;;;;;;21.59;28.39;96913.75;5036309;28;720;-77
2022/09/17 03:59:38;;;;;;;;;;;;;;;21.22;28.98;96910.84;5036247;28;855;-78
2022/09/17 04:02:04;;;;;;;;;;;;;;;21.12;29.13;96906.44;5036552;28;779;-78
2022/09/17 04:04:29;;;;;;;;;;;;;;;21.04;29.20;96908.00;5036524;28;841;-78
2022/09/17 04:06:54;;;;;;;;;;;;;;;20.91;29.65;96910.16;5002255;28;1969;-77
2022/09/17 04:09:20;;;;;;;;;;;;;;;21.06;29.32;96911.13;4996397;28;1532;-77
2022/09/17 04:11:45;;;;;;;;;;;;;;;21.02;29.56;96911.28;4998108;28;895;-78
2022/09/17 04:14:11;;;;;;;;;;;;;;;20.86;29.41;96913.59;4997906;28;881;-77
2022/09/17 04:16:36;;;;;;;;;;;;;;;20.90;29.29;96902.91;4982030;28;1285;-77
2022/09/17 04:19:02;;;;;;;;;;;;;;;20.95;29.53;96905.13;4993516;28;1480;-78
2022/09/17 04:21:27;;;;;;;;;;;;;;;21.01;29.44;96898.38;4975607;28;1866;-77
2022/09/17 04:23:52;;;;;;;;;;;;;;;20.87;29.49;96892.53;4996695;28;1579;-77
2022/09/17 04:26:18;;;;;;;;;;;;;;;21.05;29.18;96881.28;4996939;28;1910;-77
2022/09/17 04:28:43;;;;;;;;;;;;;;;21.04;29.20;96893.84;4996132;28;1791;-77
2022/09/17 04:31:09;;;;;;;;;;;;;;;20.85;29.51;96897.88;4946288;28;1184;-78
2022/09/17 04:33:34;;;;;;;;;;;;;;;20.90;29.34;96894.44;4942790;29;1041;-77
2022/09/17 04:36:00;;;;;;;;;;;;;;;20.87;29.48;96909.50;4942950;29;1241;-77
2022/09/17 04:38:25;;;;;;;;;;;;;;;20.80;29.45;96908.53;4939348;29;823;-77
2022/09/17 04:40:51;;;;;;;;;;;;;;;20.69;29.75;96902.53;4966956;28;1753;-78
2022/09/17 04:43:16;;;;;;;;;;;;;;;21.15;29.03;96885.69;4977795;28;776;-78
2022/09/17 04:45:44;;;;;;;;;;;;;;;21.32;28.69;96889.06;4978175;28;1975;-77
2022/09/17 04:48:09;;;;;;;;;;;;;;;21.42;28.79;96882.13;4977850;28;841;-78
2022/09/17 04:50:35;;;;;;;;;;;;;;;21.23;28.82;96884.13;4977837;28;841;-77
2022/09/17 04:53:00;;;;;;;;;;;;;;;21.25;29.08;96884.47;4930034;28;1300;-77
2022/09/17 04:55:26;;;;;;;;;;;;;;;21.28;28.89;96877.84;4977643;28;701;-77
2022/09/17 04:57:52;;;;;;;;;;;;;;;21.10;29.19;96866.53;4978078;28;788;-77
2022/09/17 05:00:18;;;;;;;;;;;;;;;21.20;29.03;96851.13;4977199;28;815;-77
2022/09/17 05:02:44;;;;;;;;;;;;;;;21.01;29.19;96853.16;4977770;28;862;-77
2022/09/17 05:05:10;;;;;;;;;;;;;;;21.06;29.08;96851.75;4961501;28;1302;-77
2022/09/17 05:07:37;;;;;;;;;;;;;;;21.04;29.16;96851.44;4977670;28;1911;-77
2022/09/17 05:10:03;;;;;;;;;;;;;;;20.93;29.25;96851.06;4997219;28;1033;-77
2022/09/17 05:12:29;;;;;;;;;;;;;;;20.77;29.54;96844.44;5038385;28;858;-77
2022/09/17 05:14:54;;;;;;;;;;;;;;;20.68;29.85;96850.09;5037389;28;738;-77
2022/09/17 05:17:20;;;;;;;;;;;;;;;20.81;29.76;96847.13;5020794;28;1450;-77
2022/09/17 05:19:45;;;;;;;;;;;;;;;20.90;29.54;96852.03;5038123;28;707;-78
2022/09/17 05:22:11;;;;;;;;;;;;;;;20.89;29.39;96850.47;5037176;28;758;-77
2022/09/17 05:24:38;;;;;;;;;;;;;;;21.16;28.87;96850.50;4998053;28;1335;-78
2022/09/17 05:27:23;;;;;;;;;;;;;;;21.38;28.87;96853.22;4964793;28;1918;-78
2022/09/17 05:29:49;;;;;;;;;;;;;;;21.33;28.74;96857.44;4957808;29;856;-77
2022/09/17 05:32:14;;;;;;;;;;;;;;;20.99;29.38;96849.22;4942391;29;1545;-77
2022/09/17 05:34:40;;;;;;;;;;;;;;;21.22;29.14;96851.44;4939109;29;967;-78
2022/09/17 05:37:05;;;;;;;;;;;;;;;21.15;29.10;96853.81;4938685;29;744;-77
2022/09/17 05:39:31;;;;;;;;;;;;;;;20.98;29.34;96841.97;4938716;29;888;-78
2022/09/17 05:41:58;;;;;;;;;;;;;;;21.09;29.41;96848.00;4915228;29;923;-77
2022/09/17 05:44:24;;;;;;;;;;;;;;;20.91;29.69;96847.94;4937621;29;1538;-77
2022/09/17 05:46:51;;;;;;;;;;;;;;;21.02;29.57;96840.56;4956620;29;1973;-77
2022/09/17 05:49:16;;;;;;;;;;;;;;;20.90;29.65;96843.53;4957712;28;914;-77
2022/09/17 05:51:42;;;;;;;;;;;;;;;20.97;29.70;96846.84;4957488;29;796;-77
2022/09/17 05:54:08;;;;;;;;;;;;;;;21.04;29.42;96840.91;4938159;29;1128;-77
2022/09/17 05:56:33;;;;;;;;;;;;;;;20.81;29.72;96833.78;4955696;29;1115;-77
2022/09/17 05:58:59;;;;;;;;;;;;;;;20.90;29.65;96835.84;4959099;28;1397;-77
2022/09/17 06:01:24;;;;;;;;;;;;;;;21.01;29.41;96838.22;4943712;28;1579;-78
2022/09/17 06:03:50;;;;;;;;;;;;;;;20.75;29.91;96841.31;4945048;28;1363;-77
2022/09/17 06:06:16;;;;;;;;;;;;;;;20.97;29.57;96840.41;4948351;28;1911;-77
2022/09/17 06:08:41;;;;;;;;;;;;;;;20.99;29.62;96837.91;4999189;28;1223;-77
2022/09/17 06:11:06;;;;;;;;;;;;;;;20.95;29.73;96845.75;4999340;28;1318;-77
2022/09/17 06:13:32;;;;;;;;;;;;;;;20.95;29.53;96848.59;5015798;28;787;-77
2022/09/17 06:15:58;;;;;;;;;;;;;;;21.01;29.40;96852.34;4982277;28;1378;-77
2022/09/17 06:18:23;;;;;;;;;;;;;;;20.97;29.66;96846.84;4982743;28;729;-77
2022/09/17 06:20:55;;;;;;;;;;;;;;;21.06;29.47;96854.56;5015295;28;770;-77
2022/09/17 06:23:21;;;;;;;;;;;;;;;20.87;29.69;96841.63;4999449;28;1109;-77
2022/09/17 06:25:50;;;;;;;;;;;;;;;20.86;29.75;96838.03;5016109;28;1969;-77
2022/09/17 06:28:16;;;;;;;;;;;;;;;20.81;30.02;96845.09;5032560;28;739;-77
2022/09/17 06:30:41;;;;;;;;;;;;;;;20.97;29.57;96846.06;5016669;28;778;-78
2022/09/17 06:33:06;;;;;;;;;;;;;;;21.20;29.40;96842.66;4999917;28;1264;-78
2022/09/17 06:35:32;;;;;;;;;;;;;;;21.59;28.85;96840.16;5025387;28;1570;-77
2022/09/17 06:37:57;;;;;;;;;;;;;;;21.56;28.90;96835.44;5019210;28;885;-77
2022/09/17 06:40:23;;;;;;;;;;;;;;;21.44;29.31;96839.22;5019684;28;767;-77
2022/09/17 06:42:48;;;;;;;;;;;;;;;21.19;29.63;96852.41;5003245;28;795;-78
2022/09/17 06:45:26;;;;;;;;;;;;;;;20.92;30.19;96860.81;5036926;28;782;-77
2022/09/17 06:47:51;;;;;;;;;;;;;;;21.11;29.65;96862.44;5002437;28;957;-78
2022/09/17 06:50:17;;;;;;;;;;;;;;;21.11;29.74;96853.16;5018530;28;1500;-77
2022/09/17 06:52:52;;;;;;;;;;;;;;;21.12;29.71;96847.03;5019631;28;758;-77
2022/09/17 06:55:17;;;;;;;;;;;;;;;21.05;30.07;96836.81;5036057;28;806;-77
2022/09/17 06:57:43;;;;;;;;;;;;;;;21.02;29.87;96853.94;5036739;28;874;-77
2022/09/17 07:00:09;;;;;;;;;;;;;;;21.03;30.18;96844.19;5019003;28;1116;-77
2022/09/17 07:02:34;;;;;;;;;;;;;;;20.97;30.16;96844.00;4975099;28;1527;-78
2022/09/17 07:05:00;;;;;;;;;;;;;;;20.86;30.11;96851.38;4975653;28;759;-77
2022/09/17 07:07:25;;;;;;;;;;;;;;;21.07;29.79;96850.47;4943364;28;1919;-77
2022/09/17 07:09:52;;;;;;;;;;;;;;;20.81;30.54;96839.44;4957147;28;1629;-77
2022/09/17 07:12:18;;;;;;;;;;;;;;;20.92;30.48;96850.28;4978727;28;1777;-78
2022/09/17 07:14:43;;;;;;;;;;;;;;;20.91;30.15;96842.28;4946855;28;1137;-77
2022/09/17 07:17:09;;;;;;;;;;;;;;;20.91;30.44;96847.94;4948224;28;1778;-77
2022/09/17 07:19:34;;;;;;;;;;;;;;;20.99;29.98;96846.41;4961730;28;2334;-77
2022/09/17 07:22:00;;;;;;;;;;;;;;;20.98;29.91;96841.97;4994919;28;1836;-77
2022/09/17 07:24:25;;;;;;;;;;;;;;;21.05;30.11;96858.66;4979668;28;1338;-77
2022/09/17 07:26:51;;;;;;;;;;;;;;;21.07;29.80;96862.56;4979798;28;1975;-78
2022/09/17 07:29:16;;;;;;;;;;;;;;;21.21;29.55;96866.84;4985798;28;1771;-78
2022/09/17 07:31:42;;;;;;;;;;;;;;;20.99;30.00;96866.97;4946883;28;1268;-78
2022/09/17 07:34:08;;;;;;;;;;;;;;;20.92;30.09;96864.44;4935322;29;1243;-77
2022/09/17 07:40:08;;;;;;;;;;;;;;;20.94;30.30;96858.31;4956387;29;662;-77
2022/09/17 07:42:34;;;;;;;;;;;;;;;21.00;30.27;96862.09;4952612;28;2085;-77
2022/09/17 07:44:59;;;;;;;;;;;;;;;21.16;30.02;96858.19;4943937;29;736;-78
2022/09/17 07:50:59;;;;;;;;;;;;;;;20.94;30.25;96858.31;4959830;29;645;-77
2022/09/17 07:53:25;;;;;;;;;;;;;;;21.12;30.05;96849.84;4943836;29;918;-78
2022/09/17 07:55:51;;;;;;;;;;;;;;;20.91;30.57;96854.38;4942833;29;1947;-77
2022/09/17 07:58:16;;;;;;;;;;;;;;;20.80;30.80;96845.56;4943712;29;803;-78
2022/09/17 08:00:42;;;;;;;;;;;;;;;20.71;30.72;96829.34;4959547;29;853;-77
2022/09/17 08:03:08;;;;;;;;;;;;;;;20.99;30.60;96846.41;4935169;29;1978;-77
2022/09/17 08:05:33;;;;;;;;;;;;;;;20.95;30.52;96848.59;4980943;28;1922;-77
2022/09/17 08:07:59;;;;;;;;;;;;;;;20.98;30.62;96847.63;4999432;28;1427;-78
2022/09/17 08:10:25;;;;;;;;;;;;;;;21.03;30.28;96844.19;5016384;28;1877;-77
2022/09/17 08:12:54;;;;;;;;;;;;;;;20.99;30.30;96832.25;5038750;28;1860;-77
2022/09/17 08:15:20;;;;;;;;;;;;;;;21.04;30.64;96840.13;5021123;28;1928;-78
2022/09/17 08:17:45;;;;;;;;;;;;;;;21.05;30.31;96833.19;5005756;28;712;-78
2022/09/17 08:20:11;;;;;;;;;;;;;;;21.05;30.61;96819.06;5039619;28;762;-78
2022/09/17 08:22:37;;;;;;;;;;;;;;;21.02;30.51;96820.00;5022113;28;1108;-77
2022/09/17 08:25:03;;;;;;;;;;;;;;;21.06;30.78;96814.97;5039542;28;883;-77
2022/09/17 08:27:47;;;;;;;;;;;;;;;21.05;30.35;96808.53;5021574;28;1902;-78
2022/09/17 08:30:13;;;;;;;;;;;;;;;20.92;30.82;96801.44;5010621;28;1858;-77
2022/09/17 08:32:38;;;;;;;;;;;;;;;21.10;30.45;96809.97;5019182;28;763;-78
2022/09/17 08:35:04;;;;;;;;;;;;;;;21.06;30.68;96810.09;5001849;28;691;-78
2022/09/17 08:37:29;;;;;;;;;;;;;;;20.88;30.95;96809.28;5019717;28;913;-78
2022/09/17 08:43:30;;;;;;;;;;;;;;;20.90;30.99;96801.13;5019821;28;652;-78
2022/09/17 08:45:55;;;;;;;;;;;;;;;21.09;30.67;96782.94;5003528;28;1976;-77
2022/09/17 08:48:21;;;;;;;;;;;;;;;21.04;30.75;96778.69;5021463;28;709;-78
2022/09/17 08:50:46;;;;;;;;;;;;;;;21.06;30.66;96775.38;5039348;28;794;-77
2022/09/17 08:53:30;;;;;;;;;;;;;;;20.86;31.04;96777.88;5020964;28;873;-78
2022/09/17 08:55:59;;;;;;;;;;;;;;;21.01;30.87;96778.84;5039156;28;731;-78
2022/09/17 08:58:39;;;;;;;;;;;;;;;20.98;31.09;96779.75;5038295;28;1978;-78
2022/09/17 09:01:14;;;;;;;;;;;;;;;21.11;30.96;96759.81;5001726;28;1122;-77
2022/09/17 09:04:02;;;;;;;;;;;;;;;21.18;30.74;96757.44;5018344;28;961;-77
2022/09/17 09:06:28;;;;;;;;;;;;;;;21.08;30.98;96762.31;5019109;28;1910;-77
2022/09/17 09:12:30;;;;;;;;;;;;;;;21.05;31.25;96756.84;5019276;28;616;-77
2022/09/17 09:15:00;;;;;;;;;;;;;;;20.98;31.05;96757.13;5001677;28;791;-78
2022/09/17 09:17:27;;;;;;;;;;;;;;;21.11;31.02;96743.63;5001602;28;758;-77
2022/09/17 09:23:33;;;;;;;;;;;;;;;21.18;30.88;96725.56;4999154;28;649;-78
2022/09/17 09:26:01;;;;;;;;;;;;;;;20.91;31.51;96723.53;4981938;28;1980;-78
2022/09/17 09:28:46;;;;;;;;;;;;;;;20.96;31.46;96732.16;4998997;28;835;-78
2022/09/17 09:31:21;;;;;;;;;;;;;;;21.06;31.18;96724.47;4998406;28;787;-78
2022/09/17 09:33:46;;;;;;;;;;;;;;;21.03;31.17;96736.72;5003701;28;1865;-78
2022/09/17 09:36:13;;;;;;;;;;;;;;;21.10;31.02;96736.41;5000959;28;799;-78
2022/09/17 09:38:41;;;;;;;;;;;;;;;21.19;31.06;96744.09;4985150;28;1097;-77
2022/09/17 09:41:15;;;;;;;;;;;;;;;21.25;30.74;96745.06;5001539;28;1123;-77
2022/09/17 09:43:47;;;;;;;;;;;;;;;20.94;31.25;96731.09;5001205;28;760;-77
2022/09/17 09:46:31;;;;;;;;;;;;;;;21.20;31.13;96726.66;5018210;28;1918;-78
2022/09/17 09:49:14;;;;;;;;;;;;;;;21.12;30.89;96722.56;4976406;28;1894;-77
2022/09/17 09:51:53;;;;;;;;;;;;;;;21.13;31.06;96718.50;4981540;28;1250;-78
2022/09/17 09:54:37;;;;;;;;;;;;;;;20.98;31.22;96721.16;4998892;28;1973;-78
2022/09/17 10:00:38;;;;;;;;;;;;;;;21.10;31.27;96725.09;5018351;28;676;-77
2022/09/17 10:03:24;;;;;;;;;;;;;;;21.25;30.79;96725.25;5000732;28;724;-78
2022/09/17 10:05:57;;;;;;;;;;;;;;;21.10;31.18;96727.94;5016643;28;1906;-78
2022/09/17 10:08:23;;;;;;;;;;;;;;;20.91;31.39;96729.19;4987843;28;1886;-77
2022/09/17 10:10:55;;;;;;;;;;;;;;;20.98;31.39;96740.16;4989609;28;1102;-78
2022/09/17 10:13:21;;;;;;;;;;;;;;;20.89;31.48;96731.72;5000672;28;728;-78
2022/09/17 10:15:46;;;;;;;;;;;;;;;20.87;31.69;96728.56;4996350;28;929;-77
2022/09/17 10:18:15;;;;;;;;;;;;;;;20.86;31.61;96710.81;4996187;28;886;-78
2022/09/17 10:24:27;;;;;;;;;;;;;;;20.75;31.97;96711.28;4996211;28;950;-78
2022/09/17 10:26:59;;;;;;;;;;;;;;;21.05;31.38;96717.25;4948085;28;1907;-77
2022/09/17 10:29:24;;;;;;;;;;;;;;;20.87;31.76;96711.59;4980164;28;871;-78
2022/09/17 10:31:51;;;;;;;;;;;;;;;20.96;31.48;96697.44;4996116;28;1017;-78
2022/09/17 10:34:20;;;;;;;;;;;;;;;20.92;31.88;96691.16;4941064;29;956;-78
2022/09/17 10:36:45;;;;;;;;;;;;;;;21.05;31.44;96688.97;4962564;28;1911;-78
2022/09/17 10:39:18;;;;;;;;;;;;;;;21.14;31.50;96674.81;4962931;28;2030;-77
2022/09/17 10:45:24;;;;;;;;;;;;;;;21.00;31.66;96664.16;4996020;28;809;-77
2022/09/17 10:47:49;;;;;;;;;;;;;;;21.14;31.26;96663.50;4995912;28;1894;-78
2022/09/17 10:50:18;;;;;;;;;;;;;;;21.13;31.56;96669.63;4979403;28;763;-77
2022/09/17 10:52:47;;;;;;;;;;;;;;;21.02;31.50;96667.28;4996119;28;1091;-78
2022/09/17 10:55:12;;;;;;;;;;;;;;;21.09;31.65;96672.63;4946598;28;2010;-77
2022/09/17 10:57:47;;;;;;;;;;;;;;;21.16;31.28;96672.28;4995511;28;812;-78
2022/09/17 11:00:19;;;;;;;;;;;;;;;20.93;31.72;96664.47;4995958;28;811;-77
2022/09/17 11:02:44;;;;;;;;;;;;;;;21.10;31.28;96668.53;4979733;28;778;-78
2022/09/17 11:08:47;;;;;;;;;;;;;;;21.16;31.38;96669.47;4995613;28;636;-77
2022/09/17 11:11:15;;;;;;;;;;;;;;;21.17;31.53;96668.19;4988693;28;2060;-78
2022/09/17 11:13:41;;;;;;;;;;;;;;;21.20;31.40;96672.13;5017212;28;759;-78
2022/09/17 11:16:14;;;;;;;;;;;;;;;21.30;31.04;96683.00;5016887;28;801;-78
2022/09/17 11:18:40;;;;;;;;;;;;;;;21.26;31.38;96671.03;5003043;28;787;-78
2022/09/17 11:21:08;;;;;;;;;;;;;;;21.07;31.44;96663.81;5002917;28;1866;-77
2022/09/17 11:23:34;;;;;;;;;;;;;;;21.13;31.64;96672.44;5021222;28;850;-77
2022/09/17 11:26:01;;;;;;;;;;;;;;;21.07;31.56;96655.34;5021009;28;1910;-78
2022/09/17 11:28:37;;;;;;;;;;;;;;;21.25;31.46;96658.13;4970630;28;984;-78
2022/09/17 11:34:42;;;;;;;;;;;;;;;21.11;31.79;96644.66;4960267;29;924;-78
2022/09/17 11:37:18;;;;;;;;;;;;;;;21.22;31.74;96644.94;4921927;29;1051;-77
2022/09/17 11:39:48;;;;;;;;;;;;;;;21.24;31.60;96644.44;4906596;29;1104;-78
2022/09/17 11:42:17;;;;;;;;;;;;;;;21.21;31.54;96637.72;4933693;29;1992;-78
2022/09/17 11:44:47;;;;;;;;;;;;;;;21.37;31.21;96625.28;4925012;29;814;-78
2022/09/17 11:47:13;;;;;;;;;;;;;;;21.07;31.88;96627.84;4925060;29;1919;-78
2022/09/17 11:49:44;;;;;;;;;;;;;;;21.15;31.56;96628.31;4924917;29;970;-77
2022/09/17 11:52:30;;;;;;;;;;;;;;;21.31;31.39;96622.31;4925071;29;837;-78
2022/09/17 11:55:01;;;;;;;;;;;;;;;21.23;31.50;96621.03;4940782;29;771;-78
2022/09/17 12:01:03;;;;;;;;;;;;;;;21.38;31.23;96620.41;4959833;29;974;-78
2022/09/17 12:03:30;;;;;;;;;;;;;;;21.38;31.30;96621.19;4943887;29;780;-77
2022/09/17 12:05:56;;;;;;;;;;;;;;;21.26;31.51;96613.66;4944032;29;1899;-77
2022/09/17 12:08:22;;;;;;;;;;;;;;;21.37;31.21;96602.66;4955225;28;779;-78
2022/09/17 12:10:59;;;;;;;;;;;;;;;21.40;31.43;96600.88;4987085;28;1917;-77
2022/09/17 12:13:25;;;;;;;;;;;;;;;21.16;31.62;96607.25;5022754;28;835;-78
2022/09/17 12:15:51;;;;;;;;;;;;;;;21.24;31.54;96604.84;5022489;28;764;-77
2022/09/17 12:18:19;;;;;;;;;;;;;;;21.18;31.86;96595.44;4998107;28;920;-78
2022/09/17 12:20:45;;;;;;;;;;;;;;;21.26;31.43;96591.03;4998621;28;846;-77
2022/09/17 12:23:12;;;;;;;;;;;;;;;21.25;31.46;96593.06;5014850;28;999;-77
2022/09/17 12:25:40;;;;;;;;;;;;;;;21.36;31.15;96597.47;4999683;28;1985;-78
2022/09/17 12:28:11;;;;;;;;;;;;;;;21.30;31.72;96574.69;4978288;28;940;-78
2022/09/17 12:30:41;;;;;;;;;;;;;;;21.28;31.41;96574.34;4958712;29;874;-78
2022/09/17 12:33:07;;;;;;;;;;;;;;;21.24;31.85;96570.91;4959161;29;826;-77
2022/09/17 12:35:38;;;;;;;;;;;;;;;21.22;31.89;96564.94;4959233;29;775;-77
2022/09/17 12:38:03;;;;;;;;;;;;;;;21.20;31.61;96565.44;4959126;28;932;-78
2022/09/17 12:40:57;;;;;;;;;;;;;;;21.27;31.61;96547.31;4958972;28;2073;-78
2022/09/17 12:43:27;;;;;;;;;;;;;;;21.24;31.70;96540.59;4921175;29;920;-78
2022/09/17 12:45:55;;;;;;;;;;;;;;;21.22;31.88;96539.50;4920819;29;1911;-78
2022/09/17 12:48:21;;;;;;;;;;;;;;;21.27;31.65;96536.00;4923488;29;874;-78
2022/09/17 12:50:58;;;;;;;;;;;;;;;21.22;31.41;96534.59;4940126;29;800;-78
2022/09/17 12:53:27;;;;;;;;;;;;;;;21.29;31.41;96528.59;4940202;29;1158;-78
2022/09/17 12:55:58;;;;;;;;;;;;;;;21.19;31.55;96529.94;4929741;29;1927;-78
2022/09/17 12:58:39;;;;;;;;;;;;;;;21.25;31.65;96539.31;4920578;29;837;-78
2022/09/17 13:01:04;;;;;;;;;;;;;;;21.31;31.43;96571.38;4931514;29;867;-78
2022/09/17 13:03:40;;;;;;;;;;;;;;;21.39;31.31;96599.31;4974111;28;2040;-78
2022/09/17 13:06:07;;;;;;;;;;;;;;;21.30;31.85;96620.75;4962082;28;1906;-77
2022/09/17 13:08:42;;;;;;;;;;;;;;;21.26;32.07;96583.31;4962339;28;1157;-78
2022/09/17 13:11:30;;;;;;;;;;;;;;;21.42;32.53;96570.09;4977803;28;1138;-78
2022/09/17 13:13:56;;;;;;;;;;;;;;;21.35;32.71;96587.38;4961849;28;1059;-78
2022/09/17 13:16:21;;;;;;;;;;;;;;;21.33;33.11;96588.66;4974564;28;1918;-78
2022/09/17 13:18:50;;;;;;;;;;;;;;;21.22;33.15;96574.22;4958678;29;925;-78
2022/09/17 13:25:02;;;;;;;;;;;;;;;21.23;33.18;96594.78;4958318;29;821;-78
2022/09/17 13:27:27;;;;;;;;;;;;;;;21.25;33.15;96578.94;4971807;28;1969;-78
2022/09/17 13:29:52;;;;;;;;;;;;;;;21.39;32.80;96585.19;4965853;28;752;-77
2022/09/17 13:32:33;;;;;;;;;;;;;;;21.36;32.85;96588.97;5009992;28;1928;-77
2022/09/17 13:35:11;;;;;;;;;;;;;;;21.13;33.52;96633.63;5017874;28;1940;-78
2022/09/17 13:37:52;;;;;;;;;;;;;;;21.47;32.96;96685.47;4985223;28;1090;-78
2022/09/17 13:40:18;;;;;;;;;;;;;;;21.21;33.48;96696.34;5000948;28;701;-78
2022/09/17 13:42:44;;;;;;;;;;;;;;;21.14;33.66;96708.75;5001306;28;1269;-78
2022/09/17 13:45:10;;;;;;;;;;;;;;;21.17;33.72;96786.22;5001467;28;752;-78
2022/09/17 13:47:39;;;;;;;;;;;;;;;21.37;33.07;96819.72;5000385;28;1900;-78
2022/09/17 13:50:05;;;;;;;;;;;;;;;21.07;33.46;96803.19;4976406;28;1756;-79
2022/09/17 13:52:31;;;;;;;;;;;;;;;21.21;33.07;96798.94;4965094;28;824;-78
2022/09/17 13:54:56;;;;;;;;;;;;;;;21.48;32.63;96812.31;4998796;28;787;-78
2022/09/17 13:57:22;;;;;;;;;;;;;;;21.49;32.39;96832.91;4981300;28;760;-79
2022/09/17 13:59:52;;;;;;;;;;;;;;;21.61;32.11;96843.31;4981335;28;696;-78
2022/09/17 14:02:17;;;;;;;;;;;;;;;21.41;32.39;96857.16;4965445;28;737;-78
2022/09/17 14:04:43;;;;;;;;;;;;;;;21.38;32.77;96875.06;5004342;28;1862;-78
2022/09/17 14:07:20;;;;;;;;;;;;;;;21.32;32.39;96915.28;5018170;28;1910;-77
2022/09/17 14:09:53;;;;;;;;;;;;;;;21.44;32.30;96901.47;5018156;28;731;-78
2022/09/17 14:12:37;;;;;;;;;;;;;;;21.22;32.36;96729.81;5000937;28;775;-78
2022/09/17 14:15:03;;;;;;;;;;;;;;;21.38;32.13;96762.66;5018167;28;791;-78
2022/09/17 14:21:05;;;;;;;;;;;;;;;21.17;32.51;96843.56;5016956;28;1936;-78
2022/09/17 14:23:31;;;;;;;;;;;;;;;21.40;32.29;96830.09;5000407;28;786;-78
2022/09/17 14:25:57;;;;;;;;;;;;;;;21.40;31.98;96765.81;4967972;28;1915;-78